Tiempo atmosférico en la estación meteorológica de Hoyos , Cáceres (569 m.)



Fecha
DESCASC
Temp. máxima en grados centígrados (hora)
DESCASC
Temp. mínima en grados centígrados (hora)
DESCASC
Temp. media en grados centígrados
DESCASC
Racha de viento máxima en m/sg (hora)
DESCASC
Velocidad máxima media en intervalos de 10 minutos(hora)
DESCASC
Precipitaciones diarias en mm
DESCASC
Precipitaciones de 00:00 a 06:00 en mm
DESCASC
Precipitaciones de 06:00 a 12:00 en mm
DESCASC
Precipitaciones de 12:00 a 18:00 en mm
DESCASC
Precipitaciones de 18:00 a 24:00 en mm
DESCASC
23-06-2019 28.3 (16:50) 13.1 (07:40) 20.7 9.72 (14:10) 5 (15:00) 0 0 0 0 0
22-06-2019 30 (17:40) 16.6 (07:50) 23.3 10 (16:30) 5.28 (01:30) 0 0 0 0 0
21-06-2019 28.8 (18:10) 15.8 (05:20) 22.3 12.22 (06:30) 7.5 (06:40) 0 0 0 0 0
20-06-2019 26.1 (19:30) 16 (00:00) 21.1 9.44 (04:20) 5.28 (04:20) 0 0 0 0 0
19-06-2019 24.7 (17:20) 15.9 (00:00) 20.3 7.78 (02:30) 4.17 (02:10) 0 0 0 0 0
18-06-2019 23 (17:40) 10 (00:00) 16.5 10.28 (13:20) 6.39 (13:20) 0.4 0 0 0.4 0
17-06-2019 27.8 (16:00) 12.4 (00:00) 20.1 9.17 (15:10) 5.28 (14:50) 0 0 0 0 0
16-06-2019 28.4 (18:10) 15.5 (00:00) 21.9 9.44 (22:30) 5.83 (22:40) 0 0 0 0 0
15-06-2019 25.3 (19:10) 6.6 (00:00) 15.9 8.89 (09:40) 3.89 (09:20) 0 0 0 0 0
14-06-2019 21.6 (16:00) 8.1 (00:00) 14.9 10.56 (00:20) 5.83 (22:00) 0 0 0 0 0
13-06-2019 24.7 (17:30) 11.7 (00:00) 18.2 12.22 (03:50) 6.67 (04:00) 0 0 0 0 0
12-06-2019 25.5 (18:50) 11.8 (00:00) 18.7 12.5 (03:50) 6.67 (05:10) 0 0 0 0 0
11-06-2019 23.6 (18:00) 12.5 (00:00) 18.1 16.67 (01:40) 7.78 (00:50) 0 0 0 0 0
10-06-2019 26.1 (17:10) 13.6 (00:00) 19.9 13.33 (07:00) 8.61 (23:30) 0 0 0 0 0
09-06-2019 25.4 (17:20) 13 (00:00) 19.2 11.39 (23:40) 6.67 (23:40) 0 0 0 0 0
08-06-2019 25.6 (18:00) 11.6 (00:00) 18.6 12.5 (03:00) 6.67 (03:00) 0 0 0 0 0
07-06-2019 20.5 (19:00) 5.7 (00:00) 13.1 9.72 (12:10) 5 (23:40) 0 0 0 0 0
06-06-2019 19.9 (16:10) 7.9 (00:00) 13.9 12.5 (20:00) 6.67 (20:20) 4.8 0 0 0 4.8
05-06-2019 20.5 (15:10) 10.1 (00:00) 15.3 15.28 (01:40) 9.44 (00:40) 0 0 0 0 0
04-06-2019 24.4 (14:30) 12.2 (00:00) 18.3 14.17 (23:59) 7.78 (23:59) 0 0 0 0 0
03-06-2019 31.1 (16:50) 18.7 (00:00) 24.9 11.67 (14:10) 5.56 (22:40) 0 0 0 0 0
02-06-2019 34 (16:20) 20.1 (00:00) 27.1 10.28 (04:10) 5.83 (00:10) 0 0 0 0 0
01-06-2019 33.9 (17:00) 19.9 (00:00) 26.9 8.61 (23:10) 5.83 (23:40) 0 0 0 0 0
31-05-2019 32.8 (18:40) 17.1 (00:00) 24.9 6.94 (05:30) 3.06 (16:50) 0 0 0 0 0
30-05-2019 31.3 (19:10) 12.9 (00:00) 22.1 5.83 (14:20) 3.06 (14:20) 0 0 0 0 0
29-05-2019 29.6 (17:40) 13.3 (00:00) 21.5 8.89 (03:50) 5.28 (03:50) 0 0 0 0 0
28-05-2019 27.6 (17:50) 15.3 (00:00) 21.5 13.33 (02:20) 7.78 (02:30) 0 0 0 0 0
27-05-2019 29.4 (16:30) 15.9 (00:00) 22.6 9.72 (09:10) 4.72 (00:40) 0 0 0 0 0
26-05-2019 29.1 (18:00) 14.7 (00:00) 21.9 11.11 (14:00) 6.11 (14:00) 0 0 0 0 0
25-05-2019 26.2 (17:10) 12 (00:00) 19.1 17.22 (07:50) 4.72 (04:30) 0 0 0 0 0

Gráficas

Temp. máximas Temp. mínimas Temp. medias Precipitaciones Rachas de viento máximas Velocidades máximas media en intervalos de 10 minutos

Datos horarios

Fecha y hora oficial Temperatura (ºC) Velocidad del viento (km/h) Dirección del viento Racha (km/h) Dirección de racha Precipitación (mm) Presión (hPa) Tendencia (hPa) Humedad (%)
2019-06-23 23:00:00 22.5 10 Oeste 20 Noroeste 0 -- -- 63
2019-06-23 22:00:00 23.3 12 Noroeste 21 Oeste 0 -- -- 58
2019-06-23 21:00:00 24.5 8 Oeste 22 Oeste 0 -- -- 52
2019-06-23 20:00:00 25.9 10 Oeste 21 Oeste 0 -- -- 48
2019-06-23 19:00:00 27 8 Oeste 19 Oeste 0 -- -- 42
2019-06-23 18:00:00 27.8 9 Oeste 21 Oeste 0 -- -- 41
2019-06-23 17:00:00 27.7 11 Oeste 24 Oeste 0 -- -- 41
2019-06-23 16:00:00 27.2 15 Sur 27 Sur 0 -- -- 33
2019-06-23 15:00:00 27.3 18 Sur 35 Sudeste 0 -- -- 27
2019-06-23 14:00:00 26.3 13 Sur 26 Sudeste 0 -- -- 38
2019-06-23 13:00:00 23.6 11 Sur 24 Sudeste 0 -- -- 46
2019-06-23 12:00:00 23.9 11 Sur 25 Sudoeste 0 -- -- 43
2019-06-23 11:00:00 22.1 5 Sudeste 11 Sudeste 0 -- -- 45
2019-06-23 10:00:00 19.6 5 Este 9 Este 0 -- -- 48
2019-06-23 09:00:00 18.7 4 Sudeste 8 Sudeste 0 -- -- 49
2019-06-23 08:00:00 13.4 3 Noroeste 6 Noroeste 0 -- -- 60
2019-06-23 07:00:00 14 2 Noroeste 6 Norte 0 -- -- 53
2019-06-23 06:00:00 14.5 0 Calma 10 Norte 0 -- -- 53
2019-06-23 05:00:00 16.7 4 Norte 13 Oeste 0 -- -- 49
2019-06-23 04:00:00 18.1 7 Oeste 14 Sudoeste 0 -- -- 44
2019-06-23 03:00:00 18.7 9 Oeste 17 Oeste 0 -- -- 43
2019-06-23 02:00:00 20.2 12 Oeste 18 Oeste 0 -- -- 33
2019-06-23 01:00:00 20.4 6 Sudoeste 17 Oeste 0 -- -- 31
2019-06-23 00:00:00 21.5 8 Oeste 31 Oeste 0 -- -- 27
2019-06-22 23:00:00 22.5 15 Oeste 24 Oeste 0 -- -- 24
2019-06-22 22:00:00 23.5 13 Oeste 22 Oeste 0 -- -- 23
2019-06-22 21:00:00 26 10 Oeste 28 Oeste 0 -- -- 23
2019-06-22 20:00:00 28.5 12 Oeste 24 Sudoeste 0 -- -- 20
2019-06-22 19:00:00 29.3 11 Sudoeste 26 Oeste 0 -- -- 20
2019-06-22 18:00:00 30 12 Sudoeste 27 Sudoeste 0 -- -- 20
2019-06-22 17:00:00 29.4 13 Sur 36 Sur 0 -- -- 28
2019-06-22 16:00:00 29.4 15 Sur 28 Sur 0 -- -- 22
2019-06-22 15:00:00 28.6 16 Sur 32 Sur 0 -- -- 25
2019-06-22 14:00:00 27.9 14 Sur 27 Sur 0 -- -- 30
2019-06-22 13:00:00 26 11 Sur 21 Sur 0 -- -- 38
2019-06-22 12:00:00 25.9 10 Sur 19 Este 0 -- -- 39
2019-06-22 11:00:00 24.2 6 Este 18 Sudeste 0 -- -- 42
2019-06-22 10:00:00 23.4 5 Este 12 Nordeste 0 -- -- 43
2019-06-22 09:00:00 20.8 3 Nordeste 7 Noroeste 0 -- -- 48
2019-06-22 08:00:00 16.8 2 Norte 10 Nordeste 0 -- -- 58
2019-06-22 07:00:00 18.5 7 Nordeste 13 Nordeste 0 -- -- 50
2019-06-22 06:00:00 18.5 5 Nordeste 10 Nordeste 0 -- -- 50
2019-06-22 05:00:00 19.4 7 Norte 15 Norte 0 -- -- 49
2019-06-22 04:00:00 20.4 6 Nordeste 17 Nordeste 0 -- -- 47
2019-06-22 03:00:00 20.2 8 Norte 22 Noroeste 0 -- -- 51
2019-06-22 02:00:00 20.7 19 Norte 33 Noroeste 0 -- -- 53
2019-06-22 01:00:00 21 15 Norte 29 Norte 0 -- -- 53
2019-06-22 00:00:00 21.5 11 Norte 23 Noroeste 0 -- -- 48
2019-06-21 23:00:00 21.6 6 Norte 17 Norte 0 -- -- 43
2019-06-21 22:00:00 22 6 Noroeste 14 Norte 0 -- -- 41
2019-06-21 21:00:00 24.5 5 Noroeste 17 Norte 0 -- -- 39
2019-06-21 20:00:00 27.4 9 Norte 19 Nordeste 0 -- -- 32
2019-06-21 19:00:00 28.3 11 Norte 21 Noroeste 0 -- -- 30
2019-06-21 18:00:00 28.5 8 Norte 24 Noroeste 0 -- -- 28
2019-06-21 17:00:00 28.2 6 Norte 23 Noroeste 0 -- -- 31
2019-06-21 16:00:00 28 10 Noroeste 26 Norte 0 -- -- 30
2019-06-21 15:00:00 26.5 7 Nordeste 18 Norte 0 -- -- 33
2019-06-21 14:00:00 25.6 9 Norte 24 Nordeste 0 -- -- 40
2019-06-21 13:00:00 24.1 12 Norte 28 Norte 0 -- -- 44
2019-06-21 12:00:00 22.3 14 Norte 36 Nordeste 0 -- -- 49
2019-06-21 11:00:00 20.5 16 Norte 37 Noroeste 0 -- -- 58
2019-06-21 10:00:00 18.3 22 Norte 42 Norte 0 -- -- 65
2019-06-21 09:00:00 17 24 Norte 43 Norte 0 -- -- 69
2019-06-21 08:00:00 16.3 21 Norte 41 Norte 0 -- -- 72
2019-06-21 07:00:00 16 22 Norte 44 Norte 0 -- -- 73
2019-06-21 06:00:00 15.9 21 Norte 42 Noroeste 0 -- -- 73
2019-06-21 05:00:00 16 21 Norte 41 Norte 0 -- -- 72
2019-06-21 04:00:00 16.4 23 Norte 40 Norte 0 -- -- 69
2019-06-21 03:00:00 16.9 22 Noroeste 40 Norte 0 -- -- 67
2019-06-21 02:00:00 17.6 21 Noroeste 43 Norte 0 -- -- 64
2019-06-21 01:00:00 18 21 Noroeste 42 Norte 0 -- -- 59
2019-06-21 00:00:00 18.5 15 Noroeste 33 Noroeste 0 -- -- 60
2019-06-20 23:00:00 18.2 13 Norte 27 Norte 0 -- -- 62
2019-06-20 22:00:00 20.1 7 Norte 26 Oeste 0 -- -- 58
2019-06-20 21:00:00 21.8 15 Oeste 30 Oeste 0 -- -- 52
2019-06-20 20:00:00 25.4 10 Oeste 20 Sur 0 -- -- 38
2019-06-20 19:00:00 25.9 8 Sudoeste 22 Sur 0 -- -- 36
2019-06-20 18:00:00 25.5 8 Sudoeste 28 Sudeste 0 -- -- 39
2019-06-20 17:00:00 25.7 10 Sudoeste 23 Sudeste 0 -- -- 39
2019-06-20 16:00:00 25.1 8 Sudoeste 24 Sudeste 0 -- -- 42
2019-06-20 15:00:00 24.8 12 Sudeste 22 Sur 0 -- -- 45
2019-06-20 14:00:00 23.3 8 Oeste 21 Sudeste 0 -- -- 49
2019-06-20 13:00:00 23 12 Sur 21 Sudeste 0 -- -- 51
2019-06-20 12:00:00 20.2 8 Sur 14 Sudoeste 0 -- -- 61
2019-06-20 11:00:00 20.6 5 Sur 10 Sur 0 -- -- 62
2019-06-20 10:00:00 20.2 3 Sudoeste 6 Sudeste 0 -- -- 64
2019-06-20 09:00:00 17.9 0 Calma 14 Norte 0 -- -- 72
2019-06-20 08:00:00 17.2 9 Norte 22 Norte 0 -- -- 73
2019-06-20 07:00:00 17.1 14 Norte 25 Norte 0 -- -- 73
2019-06-20 06:00:00 16.8 15 Norte 30 Norte 0 -- -- 74
2019-06-20 05:00:00 16.7 19 Norte 34 Norte 0 -- -- 75
2019-06-20 04:00:00 16.7 14 Norte 30 Norte 0 -- -- 74
2019-06-20 03:00:00 16.9 10 Norte 23 Norte 0 -- -- 72
2019-06-20 02:00:00 16.3 10 Norte 17 Nordeste 0 -- -- 77
2019-06-20 01:00:00 17 4 Noroeste 17 Norte 0 -- -- 73
2019-06-20 00:00:00 18.2 8 Norte 18 Noroeste 0 -- -- 69
2019-06-19 23:00:00 19.1 13 Noroeste 20 Noroeste 0 -- -- 66
2019-06-19 22:00:00 20.7 9 Noroeste 15 Oeste 0 -- -- 56
2019-06-19 21:00:00 22.2 4 Oeste 14 Sudoeste 0 -- -- 53
2019-06-19 20:00:00 23.6 7 Sudoeste 21 Oeste 0 -- -- 48
2019-06-19 19:00:00 23.1 8 Sudoeste 17 Sudoeste 0 -- -- 50
2019-06-19 18:00:00 23.8 10 Sudoeste 22 Oeste 0 -- -- 48
2019-06-19 17:00:00 24.2 12 Oeste 28 Oeste 0 -- -- 49
2019-06-19 16:00:00 21.8 3 Sur 16 Sur 0 -- -- 54
2019-06-19 15:00:00 22 5 Sur -- -- -- -- -- 53
2019-06-19 14:00:00 -- -- -- -- -- -- -- -- --
2019-06-19 13:00:00 -- -- -- -- -- -- -- -- --
2019-06-19 12:00:00 -- -- -- -- -- -- -- -- --
2019-06-19 11:00:00 -- -- -- -- -- -- -- -- --
2019-06-19 10:00:00 -- -- -- -- -- -- -- -- --
2019-06-19 09:00:00 -- -- -- -- -- -- -- -- --
2019-06-19 08:00:00 -- -- -- -- -- -- -- -- --
2019-06-19 07:00:00 -- -- -- -- -- -- -- -- --
2019-06-19 06:00:00 -- -- -- -- -- -- -- -- --
2019-06-19 05:00:00 -- -- -- -- -- -- -- -- --
2019-06-19 04:00:00 -- -- -- -- -- -- -- -- --
2019-06-19 03:00:00 -- -- -- -- -- -- -- -- --
2019-06-19 02:00:00 -- -- -- -- -- -- -- -- --
2019-06-19 01:00:00 -- -- -- -- -- -- -- -- --
2019-06-19 00:00:00 -- -- -- -- -- -- -- -- --
2019-06-18 23:00:00 -- -- -- -- -- -- -- -- --
2019-06-18 22:00:00 -- -- -- -- -- -- -- -- --
2019-06-18 21:00:00 -- -- -- -- -- -- -- -- --
2019-06-18 20:00:00 -- -- -- -- -- -- -- -- --
2019-06-18 19:00:00 22.7 14 Sudoeste 30 Sudoeste 0 -- -- 52
2019-06-18 18:00:00 22.7 17 Sudoeste 35 Sudoeste 0 -- -- 52
2019-06-18 17:00:00 21.7 15 Sudoeste 35 Sur 0 -- -- 57
2019-06-18 16:00:00 21.2 13 Sudoeste 31 Sur 0 -- -- 59
2019-06-18 15:00:00 20.8 12 Sudoeste 30 Sudoeste 0 -- -- 67
2019-06-18 14:00:00 17.7 14 Sudoeste 37 Sudoeste 0.4 -- -- 83
2019-06-18 13:00:00 20.5 15 Sur 30 Sudoeste 0 -- -- 54
2019-06-18 12:00:00 19.5 11 Sur 25 Sur 0 -- -- 52
2019-06-18 11:00:00 18.7 12 Sur 23 Sudeste 0 -- -- 50
2019-06-18 10:00:00 16.9 6 Sudeste 12 Sudeste 0 -- -- 54
2019-06-18 09:00:00 14.6 5 Sudeste 9 Este 0 -- -- 59
2019-06-18 08:00:00 10.6 2 Norte 6 Este 0 -- -- 71
2019-06-18 07:00:00 10 2 Este 6 Este 0 -- -- 67
2019-06-18 06:00:00 13.8 2 Oeste 17 Sudoeste 0 -- -- 51
2019-06-18 05:00:00 16.5 8 Sudoeste 20 Oeste 0 -- -- 42
2019-06-18 04:00:00 17.2 13 Oeste 26 Sudoeste 0 -- -- 38
2019-06-18 03:00:00 18.5 17 Oeste 30 Oeste 0 -- -- 45
2019-06-18 02:00:00 19.2 15 Oeste 29 Oeste 0 -- -- 47
2019-06-18 01:00:00 19.4 11 Oeste 18 Oeste 0 -- -- 44
2019-06-18 00:00:00 19.7 6 Oeste 8 Oeste 0 -- -- 43
2019-06-17 23:00:00 20.2 4 Noroeste 6 Noroeste 0 -- -- 42
2019-06-17 22:00:00 21.7 3 Norte 16 Noroeste 0 -- -- 39
2019-06-17 21:00:00 24.1 13 Noroeste 22 Oeste 0 -- -- 35
2019-06-17 20:00:00 26 6 Sudoeste 18 Sudoeste 0 -- -- 27
2019-06-17 19:00:00 26.7 9 Sudoeste 20 Sur 0 -- -- 25
2019-06-17 18:00:00 26.8 11 Sur 24 Sur 0 -- -- 24
2019-06-17 17:00:00 27.1 9 Sur 27 Sur 0 -- -- 27
2019-06-17 16:00:00 27.8 13 Sur 33 Sudeste 0 -- -- 27
2019-06-17 15:00:00 27.5 10 Sur 31 Sudeste 0 -- -- 28
2019-06-17 14:00:00 25.8 12 Sur 29 Sudeste 0 -- -- 34
2019-06-17 13:00:00 24.3 10 Sudoeste 24 Sudeste 0 -- -- 39
2019-06-17 12:00:00 23.2 9 Sur 19 Sudeste 0 -- -- 38
2019-06-17 11:00:00 21.6 12 Sudeste 21 Sudeste 0 -- -- 40
2019-06-17 10:00:00 20 5 Sudeste 9 Este 0 -- -- 51
2019-06-17 09:00:00 17.8 3 Sudeste 5 Sudeste 0 -- -- 56
2019-06-17 08:00:00 13.4 0 Calma 6 Norte 0 -- -- 69
2019-06-17 07:00:00 13.2 2 Norte 7 Oeste 0 -- -- 59
2019-06-17 06:00:00 16.3 4 Oeste 13 Oeste 0 -- -- 46
2019-06-17 05:00:00 17.5 9 Oeste 19 Oeste 0 -- -- 42
2019-06-17 04:00:00 18.5 12 Oeste 31 Oeste 0 -- -- 45
2019-06-17 03:00:00 15.9 7 Oeste 13 Oeste 0 -- -- 58
2019-06-17 02:00:00 15.9 3 Noroeste 16 Noroeste 0 -- -- 57
2019-06-17 01:00:00 17.4 3 Noroeste 8 Este 0 -- -- 50
2019-06-17 00:00:00 21.1 10 Oeste 24 Oeste 0 -- -- 44
2019-06-16 23:00:00 22 19 Oeste 34 Oeste 0 -- -- 36
2019-06-16 22:00:00 23.2 16 Oeste 27 Oeste 0 -- -- 34
2019-06-16 21:00:00 25.1 8 Oeste 13 Oeste 0 -- -- 31
2019-06-16 20:00:00 27.9 7 Oeste 17 Sudeste 0 -- -- 26
2019-06-16 19:00:00 28.4 6 Sur 19 Sur 0 -- -- 23
2019-06-16 18:00:00 28 7 Sur 19 Sur 0 -- -- 23
2019-06-16 17:00:00 28 12 Sur 22 Oeste 0 -- -- 23
2019-06-16 16:00:00 26.8 11 Sur 22 Sur 0 -- -- 25
2019-06-16 15:00:00 25.9 10 Sudoeste 27 Sur 0 -- -- 28
2019-06-16 14:00:00 24.6 9 Sur 21 Sudeste 0 -- -- 29
2019-06-16 13:00:00 24.5 8 Sudeste 19 Sudeste 0 -- -- 31
2019-06-16 12:00:00 23.5 8 Sur 18 Sudeste 0 -- -- 33
2019-06-16 11:00:00 22.6 5 Sur 13 Sudeste 0 -- -- 35
2019-06-16 10:00:00 21.8 4 Sudeste 10 Sudeste 0 -- -- 37
2019-06-16 09:00:00 19.1 3 Nordeste 15 Norte 0 -- -- 47
2019-06-16 08:00:00 15.5 9 Norte 18 Norte 0 -- -- 54
2019-06-16 07:00:00 16.2 11 Nordeste 24 Norte 0 -- -- 49
2019-06-16 06:00:00 16.3 14 Norte 30 Norte 0 -- -- 50
2019-06-16 05:00:00 16.5 16 Norte 31 Norte 0 -- -- 50
2019-06-16 04:00:00 16.7 15 Norte 28 Noroeste 0 -- -- 50
2019-06-16 03:00:00 17 15 Norte 31 Norte 0 -- -- 49
2019-06-16 02:00:00 17.6 17 Norte 31 Norte 0 -- -- 48
2019-06-16 01:00:00 18.3 19 Norte 33 Norte 0 -- -- 46
2019-06-16 00:00:00 18.5 12 Norte 25 Norte 0 -- -- 43
2019-06-15 23:00:00 18.3 10 Norte 17 Norte 0 -- -- 41
2019-06-15 22:00:00 17.3 7 Noroeste 10 Noroeste 0 -- -- 49
2019-06-15 21:00:00 21.1 3 Norte 9 Noroeste 0 -- -- 45
2019-06-15 20:00:00 24.9 4 Norte 15 Oeste 0 -- -- 32
2019-06-15 19:00:00 25.1 4 Sudoeste 17 Sudoeste 0 -- -- 32
2019-06-15 18:00:00 25 7 Sudoeste 25 Sudoeste 0 -- -- 32
2019-06-15 17:00:00 24.2 11 Sudoeste 21 Sudoeste 0 -- -- 33
2019-06-15 16:00:00 23.2 8 Sur 19 Sudoeste 0 -- -- 35
2019-06-15 15:00:00 22.5 5 Sudoeste 18 Sudeste 0 -- -- 36
2019-06-15 14:00:00 21.1 8 Sudeste 18 Sur 0 -- -- 39
2019-06-15 13:00:00 19.6 9 Sur 17 Oeste 0 -- -- 43
2019-06-15 12:00:00 19.1 6 Norte 18 Norte 0 -- -- 44
2019-06-15 11:00:00 16.7 12 Norte 25 Norte 0 -- -- 55
2019-06-15 10:00:00 14.8 12 Norte 32 Norte 0 -- -- 61
2019-06-15 09:00:00 13.5 11 Norte 28 Norte 0 -- -- 63
2019-06-15 08:00:00 10.8 12 Norte 25 Norte 0 -- -- 71
2019-06-15 07:00:00 6.6 3 Noroeste 8 Este 0 -- -- 85
2019-06-15 06:00:00 7.4 5 Norte 13 Norte 0 -- -- 80
2019-06-15 05:00:00 7.9 4 Norte 13 Nordeste 0 -- -- 77
2019-06-15 04:00:00 8 5 Noroeste 8 Norte 0 -- -- 78
2019-06-15 03:00:00 8.1 0 Calma 6 Nordeste 0 -- -- 79
2019-06-15 02:00:00 8.8 3 Norte 8 Oeste 0 -- -- 76
2019-06-15 01:00:00 10 2 Sudoeste 11 Noroeste 0 -- -- 73
2019-06-15 00:00:00 12.9 8 Noroeste 25 Oeste 0 -- -- 62
2019-06-14 23:00:00 13.8 18 Oeste 32 Oeste 0 -- -- 59
2019-06-14 22:00:00 14.9 21 Oeste 35 Oeste 0 -- -- 56
2019-06-14 21:00:00 16.2 19 Oeste 32 Oeste 0 -- -- 50
2019-06-14 20:00:00 18.2 18 Noroeste 35 Oeste 0 -- -- 43
2019-06-14 19:00:00 18.1 17 Oeste 38 Sudoeste 0 -- -- 42
2019-06-14 18:00:00 19.8 12 Oeste 30 Oeste 0 -- -- 36
2019-06-14 17:00:00 20.9 17 Sudoeste 32 Oeste 0 -- -- 34
2019-06-14 16:00:00 21.6 12 Oeste 29 Sudoeste 0 -- -- 34
2019-06-14 15:00:00 18.6 8 Sudoeste 21 Sudoeste 0 -- -- 44
2019-06-14 14:00:00 18.6 9 Oeste 25 Sudeste 0 -- -- 46
2019-06-14 13:00:00 17 7 Sudoeste 22 Sudoeste 0 -- -- 51
2019-06-14 12:00:00 16.5 6 Sudeste 19 Sudeste 0 -- -- 55
2019-06-14 11:00:00 15.5 8 Sur 18 Sudeste 0 -- -- 58
2019-06-14 10:00:00 14.5 5 Este 15 Este 0 -- -- 60
2019-06-14 09:00:00 11.7 4 Sudeste 8 Este 0 -- -- 71
2019-06-14 08:00:00 8.4 3 Este 9 Este 0 -- -- 79
2019-06-14 07:00:00 8.9 6 Nordeste 12 Nordeste 0 -- -- 76
2019-06-14 06:00:00 10.5 6 Norte 16 Nordeste 0 -- -- 68
2019-06-14 05:00:00 12.5 6 Norte 25 Norte 0 -- -- 61
2019-06-14 04:00:00 13.6 15 Norte 29 Noroeste 0 -- -- 57
2019-06-14 03:00:00 14.2 14 Norte 25 Norte 0 -- -- 56
2019-06-14 02:00:00 14.8 13 Norte 27 Norte 0 -- -- 54
2019-06-14 01:00:00 15.7 17 Norte 38 Norte 0 -- -- 51
2019-06-14 00:00:00 16.8 18 Norte 37 Norte 0 -- -- 48
2019-06-13 23:00:00 17.7 17 Norte 27 Norte 0 -- -- 44
2019-06-13 22:00:00 18.2 7 Norte 18 Nordeste 0 -- -- 45
2019-06-13 21:00:00 20.2 5 Noroeste 15 Sudoeste 0 -- -- 36
2019-06-13 20:00:00 23.5 7 Sudoeste 23 Sur 0 -- -- 26
2019-06-13 19:00:00 24.2 9 Sur 29 Sur 0 -- -- 26
2019-06-13 18:00:00 24.4 14 Sur 26 Sur 0 -- -- 24
2019-06-13 17:00:00 24.2 10 Sur 22 Sur 0 -- -- 28
2019-06-13 16:00:00 23.1 9 Sudoeste 23 Sur 0 -- -- 30
2019-06-13 15:00:00 22.3 10 Sur 22 Sudeste 0 -- -- 32
2019-06-13 14:00:00 21.1 9 Sudeste 23 Sudeste 0 -- -- 37
2019-06-13 13:00:00 20.5 10 Sur 19 Sudeste 0 -- -- 40
2019-06-13 12:00:00 19.5 4 Este 19 Este 0 -- -- 41
2019-06-13 11:00:00 17.7 9 Norte 26 Norte 0 -- -- 47
2019-06-13 10:00:00 15.7 13 Norte 33 Norte 0 -- -- 54
2019-06-13 09:00:00 13.6 17 Norte 33 Norte 0 -- -- 60
2019-06-13 08:00:00 12 17 Norte 33 Norte 0 -- -- 63
2019-06-13 07:00:00 11.8 19 Norte 40 Norte 0 -- -- 63
2019-06-13 06:00:00 12.4 21 Norte 40 Norte 0 -- -- 59
2019-06-13 05:00:00 13 21 Norte 38 Norte 0 -- -- 58
2019-06-13 04:00:00 13.7 24 Norte 44 Norte 0 -- -- 56
2019-06-13 03:00:00 14.4 21 Norte 35 Norte 0 -- -- 54
2019-06-13 02:00:00 15.6 19 Norte 38 Norte 0 -- -- 48
2019-06-13 01:00:00 16.7 18 Norte 35 Noroeste 0 -- -- 42
2019-06-13 00:00:00 17.5 18 Norte 30 Noroeste 0 -- -- 39
2019-06-12 23:00:00 18 14 Norte 25 Norte 0 -- -- 38
2019-06-12 22:00:00 17.7 7 Norte 14 Norte 0 -- -- 29
2019-06-12 21:00:00 20.2 8 Noroeste 16 Noroeste 0 -- -- 28
2019-06-12 20:00:00 24.2 10 Oeste 21 Oeste 0 -- -- 21
2019-06-12 19:00:00 25.5 4 Oeste 21 Sudoeste 0 -- -- 18
2019-06-12 18:00:00 24.8 4 Noroeste 21 Sur 0 -- -- 22
2019-06-12 17:00:00 24.2 9 Sudeste 20 Sudeste 0 -- -- 23
2019-06-12 16:00:00 24.1 7 Noroeste 22 Sudeste 0 -- -- 24
2019-06-12 15:00:00 22.6 8 Sur 23 Sur 0 -- -- 26
2019-06-12 14:00:00 22.1 9 Sur 17 Sudeste 0 -- -- 28
2019-06-12 13:00:00 21.1 6 Sur 16 Sur 0 -- -- 30
2019-06-12 12:00:00 19.5 3 Oeste 15 Sur 0 -- -- 34
2019-06-12 11:00:00 18 7 Norte 21 Norte 0 -- -- 39
2019-06-12 10:00:00 16 12 Norte 25 Norte 0 -- -- 44
2019-06-12 09:00:00 13.7 14 Norte 26 Norte 0 -- -- 47
2019-06-12 08:00:00 11.9 12 Norte 31 Norte 0 -- -- 49
2019-06-12 07:00:00 12.1 13 Norte 36 Norte 0 -- -- 47
2019-06-12 06:00:00 12.6 18 Norte 40 Norte 0 -- -- 46
2019-06-12 05:00:00 13.1 23 Norte 43 Norte 0 -- -- 44
2019-06-12 04:00:00 13.5 23 Norte 45 Norte 0 -- -- 45
2019-06-12 03:00:00 14.3 19 Norte 36 Norte 0 -- -- 44
2019-06-12 02:00:00 14.9 21 Noroeste 36 Norte 0 -- -- 42
2019-06-12 01:00:00 15.4 20 Norte 36 Norte 0 -- -- 42
2019-06-12 00:00:00 16.1 17 Norte 32 Norte 0 -- -- 40
2019-06-11 23:00:00 16 10 Noroeste 17 Noroeste 0 -- -- 36
2019-06-11 22:00:00 16 5 Norte 14 Norte 0 -- -- 35
2019-06-11 21:00:00 19.7 7 Nordeste 28 Este 0 -- -- 25
2019-06-11 20:00:00 22 9 Nordeste 28 Nordeste 0 -- -- 22
2019-06-11 19:00:00 23.1 12 Norte 29 Nordeste 0 -- -- 23
2019-06-11 18:00:00 23.6 10 Nordeste 30 Este 0 -- -- 25
2019-06-11 17:00:00 23.1 14 Norte 36 Norte 0 -- -- 25
2019-06-11 16:00:00 22.4 12 Nordeste 38 Norte 0 -- -- 27
2019-06-11 15:00:00 21.7 17 Norte 39 Norte 0 -- -- 29
2019-06-11 14:00:00 20.9 15 Norte 36 Nordeste 0 -- -- 32
2019-06-11 13:00:00 19.9 13 Nordeste 32 Norte 0 -- -- 35
2019-06-11 12:00:00 18.5 14 Norte 41 Noroeste 0 -- -- 41
2019-06-11 11:00:00 17.1 12 Norte 37 Nordeste 0 -- -- 49
2019-06-11 10:00:00 15.3 12 Norte 31 Norte 0 -- -- 56
2019-06-11 09:00:00 12.9 17 Norte 50 Noroeste 0 -- -- 65
2019-06-11 08:00:00 12.8 14 Norte 49 Norte 0 -- -- 65
2019-06-11 07:00:00 12.6 16 Noroeste 40 Noroeste 0 -- -- 69
2019-06-11 06:00:00 13.6 22 Noroeste 42 Norte 0 -- -- 64
2019-06-11 05:00:00 13.9 21 Norte 46 Norte 0 -- -- 63
2019-06-11 04:00:00 14.4 15 Noroeste 41 Norte 0 -- -- 61
2019-06-11 03:00:00 15.1 4 Oeste 44 Norte 0 -- -- 56
2019-06-11 02:00:00 16.2 26 Norte 60 Noroeste 0 -- -- 55
2019-06-11 01:00:00 16.3 26 Noroeste 48 Noroeste 0 -- -- 49
2019-06-11 00:00:00 17.1 17 Noroeste 46 Noroeste 0 -- -- 40
2019-06-10 23:00:00 17.8 28 Noroeste 45 Norte 0 -- -- 46
2019-06-10 22:00:00 18.9 18 Noroeste 35 Norte 0 -- -- 44
2019-06-10 21:00:00 20.8 13 Noroeste 23 Noroeste 0 -- -- 38
2019-06-10 20:00:00 23.7 12 Noroeste 24 Noroeste 0 -- -- 34
2019-06-10 19:00:00 25.3 11 Noroeste 25 Norte 0 -- -- 30
2019-06-10 18:00:00 26 9 Norte 24 Noroeste 0 -- -- 29
2019-06-10 17:00:00 26 13 Noroeste 23 Noroeste 0 -- -- 28
2019-06-10 16:00:00 25.1 14 Noroeste 26 Nordeste 0 -- -- 24
2019-06-10 15:00:00 23.7 9 Nordeste 27 Norte 0 -- -- 27
2019-06-10 14:00:00 22.7 9 Norte 25 Norte 0 -- -- 33
2019-06-10 13:00:00 21.5 11 Nordeste 28 Nordeste 0 -- -- 37
2019-06-10 12:00:00 19.7 14 Norte 34 Norte 0 -- -- 42
2019-06-10 11:00:00 18.4 13 Norte 35 Norte 0 -- -- 46
2019-06-10 10:00:00 17.1 17 Norte 38 Norte 0 -- -- 48
2019-06-10 09:00:00 15.2 22 Norte 38 Noroeste 0 -- -- 55
2019-06-10 08:00:00 13.6 18 Norte 41 Noroeste 0 -- -- 60
2019-06-10 07:00:00 13.9 24 Norte 48 Norte 0 -- -- 57
2019-06-10 06:00:00 13.6 18 Norte 40 Noroeste 0 -- -- 60
2019-06-10 05:00:00 14 26 Noroeste 48 Norte 0 -- -- 62
2019-06-10 04:00:00 14.5 25 Noroeste 47 Noroeste 0 -- -- 58
2019-06-10 03:00:00 14.7 29 Noroeste 48 Noroeste 0 -- -- 60
2019-06-10 02:00:00 15.3 27 Noroeste 44 Noroeste 0 -- -- 57
2019-06-10 01:00:00 15.7 21 Noroeste 36 Noroeste 0 -- -- 53
2019-06-10 00:00:00 15.7 21 Noroeste 41 Noroeste 0 -- -- 56
2019-06-09 23:00:00 16.6 23 Noroeste 36 Norte 0 -- -- 53
2019-06-09 22:00:00 17.8 13 Noroeste 34 Norte 0 -- -- 50
2019-06-09 21:00:00 19.4 17 Noroeste 32 Noroeste 0 -- -- 47
2019-06-09 20:00:00 22 15 Norte 32 Noroeste 0 -- -- 40
2019-06-09 19:00:00 22.7 12 Norte 24 Noroeste 0 -- -- 35
2019-06-09 18:00:00 24.2 12 Noroeste 20 Noroeste 0 -- -- 32
2019-06-09 17:00:00 24.7 7 Noroeste 28 Oeste 0 -- -- 32
2019-06-09 16:00:00 24.6 11 Oeste 28 Norte 0 -- -- 31
2019-06-09 15:00:00 24.8 14 Oeste 31 Norte 0 -- -- 30
2019-06-09 14:00:00 23.5 9 Norte 24 Norte 0 -- -- 32
2019-06-09 13:00:00 22.5 10 Noroeste 22 Norte 0 -- -- 35
2019-06-09 12:00:00 20.3 6 Sudeste 28 Sudoeste -- -- -- 43
2019-06-09 11:00:00 18.1 12 Norte 31 Norte 0 -- -- 50
2019-06-09 10:00:00 16.5 14 Norte 32 Norte 0 -- -- 51
2019-06-09 09:00:00 15 15 Norte 31 Norte 0 -- -- 58
2019-06-09 08:00:00 13.5 13 Norte 32 Norte 0 -- -- 61
2019-06-09 07:00:00 13.4 16 Norte 30 Norte 0 -- -- 66
2019-06-09 06:00:00 13.7 15 Norte 27 Norte 0 -- -- 64
2019-06-09 05:00:00 14.1 16 Norte 29 Norte 0 -- -- 64
2019-06-09 04:00:00 14.2 19 Norte 33 Norte 0 -- -- 64
2019-06-09 03:00:00 14.2 16 Norte 28 Norte 0 -- -- 65
2019-06-09 02:00:00 14.5 14 Norte 24 Norte 0 -- -- 62
2019-06-09 01:00:00 13.8 4 Norte 16 Nordeste 0 -- -- 65
2019-06-09 00:00:00 14.9 2 Este 10 Oeste 0 -- -- 59
2019-06-08 23:00:00 17.2 6 Noroeste 20 Oeste 0 -- -- 51
2019-06-08 22:00:00 19.1 10 Noroeste 14 Noroeste 0 -- -- 33
2019-06-08 21:00:00 22 6 Noroeste 9 Noroeste 0 -- -- 36
2019-06-08 20:00:00 23.8 5 Noroeste 10 Oeste -- -- -- 31
2019-06-08 19:00:00 24.7 6 Oeste 15 Oeste 0 -- -- 24
2019-06-08 18:00:00 25.6 5 Oeste 15 Oeste 0 -- -- 23
2019-06-08 17:00:00 25 7 Oeste 14 Sudoeste 0 -- -- 25
2019-06-08 16:00:00 24 6 Sur 18 Sudeste 0 -- -- 24
2019-06-08 15:00:00 23.6 9 Sur 21 Sur 0 -- -- 27
2019-06-08 14:00:00 22.9 11 Sur 24 Sudeste 0 -- -- 28
2019-06-08 13:00:00 21.6 7 Este 26 Sudeste 0 -- -- 33
2019-06-08 12:00:00 20.9 5 Este 19 Sudeste 0 -- -- 36
2019-06-08 11:00:00 19.6 4 Norte 15 Nordeste 0 -- -- 39
2019-06-08 10:00:00 17.4 11 Nordeste 27 Norte 0 -- -- 48
2019-06-08 09:00:00 13.9 16 Norte 30 Norte 0 -- -- 55
2019-06-08 08:00:00 12 15 Norte 33 Noroeste 0 -- -- 59
2019-06-08 07:00:00 11.6 20 Norte 36 Norte 0 -- -- 60
2019-06-08 06:00:00 11.7 19 Norte 34 Norte 0 -- -- 61
2019-06-08 05:00:00 11.9 19 Norte 43 Norte 0 -- -- 61
2019-06-08 04:00:00 12.3 23 Norte 40 Norte 0 -- -- 60
2019-06-08 03:00:00 12.8 24 Norte 45 Norte 0 -- -- 57
2019-06-08 02:00:00 13.2 21 Norte 37 Noroeste 0 -- -- 56
2019-06-08 01:00:00 13.8 22 Noroeste 37 Noroeste 0 -- -- 52
2019-06-08 00:00:00 14.3 17 Norte 31 Norte 0 -- -- 50
2019-06-07 23:00:00 14.3 14 Noroeste 22 Norte 0 -- -- 51
2019-06-07 22:00:00 13.9 9 Noroeste 15 Noroeste 0 -- -- 52
2019-06-07 21:00:00 16.4 8 Norte 16 Norte 0 -- -- 47
2019-06-07 20:00:00 19.4 8 Norte 17 Norte 0 -- -- 34
2019-06-07 19:00:00 20.5 11 Noroeste 19 Noroeste 0 -- -- 36
2019-06-07 18:00:00 19.8 7 Norte 21 Noroeste 0 -- -- 38
2019-06-07 17:00:00 20 10 Noroeste 23 Norte 0 -- -- 36
2019-06-07 16:00:00 19.1 6 Noroeste 23 Noroeste 0 -- -- 39
2019-06-07 15:00:00 17 12 Noroeste 24 Noroeste 0 -- -- 46
2019-06-07 14:00:00 16.7 6 Norte 24 Noroeste 0 -- -- 47
2019-06-07 13:00:00 17 10 Noroeste 35 Noroeste 0 -- -- 48
2019-06-07 12:00:00 14.5 16 Noroeste 27 Noroeste 0 -- -- 55
2019-06-07 11:00:00 13.2 7 Noroeste 21 Noroeste 0 -- -- 60
2019-06-07 10:00:00 13 5 Norte 30 Norte 0 -- -- 59
2019-06-07 09:00:00 11.2 4 Este 22 Este 0 -- -- 68
2019-06-07 08:00:00 7.1 5 Nordeste 13 Este 0 -- -- 87
2019-06-07 07:00:00 6.1 4 Este 10 Noroeste 0 -- -- 90
2019-06-07 06:00:00 7.1 8 Noroeste 16 Oeste 0 -- -- 89
2019-06-07 05:00:00 7.9 8 Oeste 20 Noroeste 0 -- -- 87
2019-06-07 04:00:00 8 9 Oeste 15 Sudoeste 0 -- -- 87
2019-06-07 03:00:00 8.3 8 Oeste 16 Noroeste 0 -- -- 89
2019-06-07 02:00:00 8.7 9 Oeste 19 Noroeste 0 -- -- 89
2019-06-07 01:00:00 10.2 7 Sudoeste 14 Norte 0 -- -- 89
2019-06-07 00:00:00 11.2 6 Oeste 28 Noroeste 0 -- -- 89
2019-06-06 23:00:00 11.3 18 Oeste 41 Noroeste 3 -- -- 89
2019-06-06 22:00:00 13.3 16 Sudoeste 39 Sudoeste 1.4 -- -- 89
2019-06-06 21:00:00 14 19 Sudoeste 42 Sudoeste 0.4 -- -- 82
2019-06-06 20:00:00 16.1 19 Sudoeste 45 Sudoeste 0 -- -- 64
2019-06-06 19:00:00 17.5 21 Sudoeste 37 Oeste 0 -- -- 54
2019-06-06 18:00:00 18.2 15 Sudoeste 34 Sur 0 -- -- 48
2019-06-06 17:00:00 17.9 16 Sudoeste 37 Sudoeste 0 -- -- 47
2019-06-06 16:00:00 19.8 20 Sudoeste 40 Sur 0 -- -- 43
2019-06-06 15:00:00 17.9 17 Sur 30 Sur 0 -- -- 47
2019-06-06 14:00:00 17.9 15 Sudoeste 29 Sur 0 -- -- 46
2019-06-06 13:00:00 17.1 15 Sur 28 Sur 0 -- -- 44
2019-06-06 12:00:00 15.6 10 Sur 28 Sur 0 -- -- 47
2019-06-06 11:00:00 14.2 12 Sur 19 Sur 0 -- -- 52
2019-06-06 10:00:00 13.6 4 Sudeste 14 Sudeste 0 -- -- 54
2019-06-06 09:00:00 12.2 5 Nordeste 14 Norte 0 -- -- 59
2019-06-06 08:00:00 8.1 0 Calma 8 Noroeste 0 -- -- 70
2019-06-06 07:00:00 9.7 0 Calma 24 Noroeste 0 -- -- 60
2019-06-06 06:00:00 10.2 14 Norte 25 Noroeste 0 -- -- 58
2019-06-06 05:00:00 9 4 Noroeste 13 Norte 0 -- -- 59
2019-06-06 04:00:00 11 4 Norte 23 Norte 0 -- -- 54
2019-06-06 03:00:00 11.4 14 Norte 27 Norte 0 -- -- 57
2019-06-06 02:00:00 9.4 4 Noroeste 15 Norte 0 -- -- 65
2019-06-06 01:00:00 9 6 Noroeste 10 Noroeste 0 -- -- 67
2019-06-06 00:00:00 11.6 3 Norte 21 Noroeste 0 -- -- 57
2019-06-05 23:00:00 13.6 15 Noroeste 26 Norte 0 -- -- 51
2019-06-05 22:00:00 14.1 12 Noroeste 26 Noroeste 0 -- -- 46
2019-06-05 21:00:00 15.5 13 Noroeste 28 Noroeste 0 -- -- 43
2019-06-05 20:00:00 17.6 12 Noroeste 26 Noroeste 0 -- -- 40
2019-06-05 19:00:00 18.6 13 Noroeste 26 Noroeste 0 -- -- 37
2019-06-05 18:00:00 18.9 10 Oeste 25 Oeste 0 -- -- 39
2019-06-05 17:00:00 19 10 Oeste 39 Sudoeste 0 -- -- 39
2019-06-05 16:00:00 19.2 10 Oeste 30 Oeste 0 -- -- 35
2019-06-05 15:00:00 19.7 12 Oeste 35 Noroeste 0 -- -- 34
2019-06-05 14:00:00 19.5 13 Oeste 30 Oeste 0 -- -- 37
2019-06-05 13:00:00 17.6 11 Noroeste 28 Noroeste 0 -- -- 44
2019-06-05 12:00:00 15.2 14 Noroeste 36 Norte 0 -- -- 48
2019-06-05 11:00:00 15.5 14 Noroeste 36 Norte 0 -- -- 49
2019-06-05 10:00:00 14 8 Noroeste 23 Noroeste 0 -- -- 53
2019-06-05 09:00:00 12.5 5 Norte 19 Sudeste 0 -- -- 58
2019-06-05 08:00:00 10.3 6 Noroeste 43 Noroeste 0 -- -- 65
2019-06-05 07:00:00 10.2 14 Noroeste 40 Noroeste 0 -- -- 66
2019-06-05 06:00:00 10.4 16 Noroeste 40 Noroeste 0 -- -- 64
2019-06-05 05:00:00 10.7 18 Noroeste 51 Noroeste 0 -- -- 64
2019-06-05 04:00:00 10.8 29 Noroeste 48 Noroeste 0 -- -- 66
2019-06-05 03:00:00 11.7 18 Oeste 48 Noroeste 0 -- -- 58
2019-06-05 02:00:00 12.3 29 Noroeste 55 Noroeste 0 -- -- 56
2019-06-05 01:00:00 12.5 29 Noroeste 53 Norte 0 -- -- 61
2019-06-05 00:00:00 13.3 28 Noroeste 51 Noroeste 0 -- -- 58
2019-06-04 23:00:00 14.2 26 Noroeste 43 Noroeste 0 -- -- 53
2019-06-04 22:00:00 15.7 8 Noroeste 28 Oeste 0 -- -- 56
2019-06-04 21:00:00 17.8 15 Oeste 26 Oeste 0 -- -- 52
2019-06-04 20:00:00 18.8 14 Noroeste 30 Oeste 0 -- -- 49
2019-06-04 19:00:00 18.9 19 Noroeste 39 Oeste 0 -- -- 57
2019-06-04 18:00:00 20.7 26 Oeste 42 Oeste 0 -- -- 49
2019-06-04 17:00:00 22.9 22 Oeste 35 Sudoeste 0 -- -- 51
2019-06-04 16:00:00 23.3 13 Sudoeste 30 Sur 0 -- -- 45
2019-06-04 15:00:00 23.4 17 Sudoeste 33 Sudoeste 0 -- -- 44
2019-06-04 14:00:00 23 9 Sudoeste 21 Sudoeste 0 -- -- 45
2019-06-04 13:00:00 21.9 10 Sur 21 Sudoeste 0 -- -- 50
2019-06-04 12:00:00 20.2 6 Sudoeste 21 Sur 0 -- -- 56
2019-06-04 11:00:00 20 4 Sudeste 15 Norte 0 -- -- 55
2019-06-04 10:00:00 18.3 6 Norte 23 Norte 0 -- -- 61
2019-06-04 09:00:00 16.3 10 Norte 31 Norte 0 -- -- 70
2019-06-04 08:00:00 14.1 12 Norte 23 Norte 0 -- -- 79
2019-06-04 07:00:00 14.1 3 Norte 23 Noroeste 0 -- -- 80
2019-06-04 06:00:00 14.7 9 Noroeste 20 Norte 0 -- -- 77
2019-06-04 05:00:00 12.7 2 Noroeste 8 Oeste 0 -- -- 80
2019-06-04 04:00:00 14.5 0 Calma 14 Sudoeste 0 -- -- 76
2019-06-04 03:00:00 15.1 6 Oeste 11 Oeste 0 -- -- 74
2019-06-04 02:00:00 17 6 Sudoeste 17 Oeste 0 -- -- 68
2019-06-04 01:00:00 20 8 Oeste 26 Oeste 0 -- -- 54
2019-06-04 00:00:00 20.3 14 Noroeste 26 Noroeste 0 -- -- 58
2019-06-03 23:00:00 21.3 12 Oeste 32 Oeste 0 -- -- 56
2019-06-03 22:00:00 22.7 15 Oeste 30 Oeste 0 -- -- 52
2019-06-03 21:00:00 25.2 12 Oeste 28 Sur 0 -- -- 47
2019-06-03 20:00:00 27.7 15 Sudoeste 30 Sudoeste 0 -- -- 35
2019-06-03 19:00:00 29.4 14 Sudoeste 33 Sudoeste 0 -- -- 34
2019-06-03 18:00:00 30.1 17 Sudoeste 32 Sur 0 -- -- 31
2019-06-03 17:00:00 30.9 13 Sudoeste 27 Oeste 0 -- -- 26
2019-06-03 16:00:00 30.7 12 Sur 34 Sur 0 -- -- 21
2019-06-03 15:00:00 29.8 9 Sur 42 Sur 0 -- -- 20
2019-06-03 14:00:00 28.7 9 Sur 20 Sur 0 -- -- 25
2019-06-03 13:00:00 27.3 9 Sudeste 20 Sur 0 -- -- 28
2019-06-03 12:00:00 26.6 8 Sur 17 Sur 0 -- -- 29
2019-06-03 11:00:00 25.2 5 Sudoeste 17 Norte 0 -- -- 33
2019-06-03 10:00:00 22.4 8 Norte 22 Nordeste 0 -- -- 40
2019-06-03 09:00:00 21.4 8 Norte 21 Norte 0 -- -- 41
2019-06-03 08:00:00 19.1 11 Norte 21 Norte 0 -- -- 37
2019-06-03 07:00:00 19.7 12 Norte 30 Norte 0 -- -- 33
2019-06-03 06:00:00 19.7 14 Norte 24 Norte 0 -- -- 37
2019-06-03 05:00:00 19.3 10 Norte 23 Norte 0 -- -- 39
2019-06-03 04:00:00 19.1 8 Nordeste 21 Norte 0 -- -- 41
2019-06-03 03:00:00 20.1 6 Norte 19 Norte 0 -- -- 35
2019-06-03 02:00:00 21.4 14 Norte 24 Norte 0 -- -- 38
2019-06-03 01:00:00 20.7 7 Norte 18 Norte 0 -- -- 38
2019-06-03 00:00:00 22.4 10 Norte 22 Norte 0 -- -- 35
2019-06-02 23:00:00 21.4 4 Norte 15 Norte 0 -- -- 39
2019-06-02 22:00:00 25.8 8 Noroeste 24 Noroeste 0 -- -- 28
2019-06-02 21:00:00 27.7 16 Noroeste 27 Noroeste 0 -- -- 27
2019-06-02 20:00:00 30.1 16 Noroeste 30 Sudoeste 0 -- -- 25
2019-06-02 19:00:00 32.1 11 Oeste 32 Sudoeste 0 -- -- 23
2019-06-02 18:00:00 33.1 12 Oeste 29 Sudoeste 0 -- -- 21
2019-06-02 17:00:00 33.9 13 Oeste 31 Sudoeste 0 -- -- 20
2019-06-02 16:00:00 33.5 14 Oeste 27 Sudoeste 0 -- -- 19
2019-06-02 15:00:00 32.2 9 Sudoeste 17 Sudoeste 0 -- -- 23
2019-06-02 14:00:00 31.8 8 Sur 21 Sudeste 0 -- -- 23
2019-06-02 13:00:00 30.4 6 Sur 16 Sur 0 -- -- 25
2019-06-02 12:00:00 29.4 10 Sur 18 Sudeste 0 -- -- 25
2019-06-02 11:00:00 28.9 4 Sudeste 12 Sur 0 -- -- 22
2019-06-02 10:00:00 27.1 8 Norte 15 Norte 0 -- -- 26
2019-06-02 09:00:00 25.4 5 Noroeste 17 Norte 0 -- -- 29
2019-06-02 08:00:00 20.2 5 Norte 10 Este 0 -- -- 42
2019-06-02 07:00:00 22.6 4 Sudoeste 28 Noroeste 0 -- -- 32
2019-06-02 06:00:00 24.3 18 Norte 31 Norte 0 -- -- 24
2019-06-02 05:00:00 25.1 17 Norte 37 Norte 0 -- -- 23
2019-06-02 04:00:00 25 15 Noroeste 35 Norte 0 -- -- 24
2019-06-02 03:00:00 24.5 16 Norte 26 Norte 0 -- -- 25
2019-06-02 02:00:00 24.6 13 Noroeste 31 Norte 0 -- -- 29
2019-06-02 01:00:00 25 18 Norte 31 Noroeste 0 -- -- 30
2019-06-02 00:00:00 26.5 20 Noroeste 31 Norte 0 -- -- 29
2019-06-01 23:00:00 26.1 15 Norte 27 Norte 0 -- -- 32
2019-06-01 22:00:00 22.1 4 Norte 6 Norte 0 -- -- 40
2019-06-01 21:00:00 25 5 Norte 6 Norte 0 -- -- 42
2019-06-01 20:00:00 32.5 3 Noroeste 7 Sur 0 -- -- 32
2019-06-01 19:00:00 33.1 4 Sudeste 11 Sur 0 -- -- 21
2019-06-01 18:00:00 33.7 4 Sudeste 10 Norte 0 -- -- 21
2019-06-01 17:00:00 33.9 4 Oeste 32 Sudoeste 0 -- -- 20
2019-06-01 16:00:00 33.5 4 Oeste 13 Sudoeste 0 -- -- 21
2019-06-01 15:00:00 31.4 5 Sudeste 15 Sudeste 0 -- -- 24
2019-06-01 14:00:00 30.6 5 Sudoeste 15 Sur 0 -- -- 26
2019-06-01 13:00:00 28.6 6 Sudeste 17 Sudeste 0 -- -- 26
2019-06-01 12:00:00 27.4 4 Este 14 Este 0 -- -- 28
2019-06-01 11:00:00 26.1 8 Este 16 Este 0 -- -- 29
2019-06-01 10:00:00 25.5 5 Este 15 Este 0 -- -- 33
2019-06-01 09:00:00 23.8 3 Este 10 Nordeste 0 -- -- 35
2019-06-01 08:00:00 20.1 6 Nordeste 9 Norte 0 -- -- 49
2019-06-01 07:00:00 19.9 6 Norte 15 Noroeste 0 -- -- 48
2019-06-01 06:00:00 22.9 12 Norte 22 Noroeste 0 -- -- 41
2019-06-01 05:00:00 21.7 2 Oeste 25 Norte 0 -- -- 45
2019-06-01 04:00:00 24.2 12 Norte 24 Norte 0 -- -- 38
2019-06-01 03:00:00 22.6 9 Norte 15 Norte 0 -- -- 37
2019-06-01 02:00:00 23.1 11 Norte 17 Norte 0 -- -- 34
2019-06-01 01:00:00 22.9 7 Norte 13 Norte 0 -- -- 33
2019-06-01 00:00:00 21.7 9 Norte 10 Noroeste 0 -- -- 40
2019-05-31 23:00:00 20.8 6 Norte 6 Norte 0 -- -- 44
2019-05-31 22:00:00 22 5 Norte 8 Norte 0 -- -- 46
2019-05-31 21:00:00 24.4 4 Norte 8 Noroeste 0 -- -- 45
2019-05-31 20:00:00 31.4 4 Noroeste 9 Sudoeste 0 -- -- 36
2019-05-31 19:00:00 32.3 6 Sur 19 Sudeste 0 -- -- 23
2019-05-31 18:00:00 32.6 7 Sudoeste 18 Sur 0 -- -- 23
2019-05-31 17:00:00 32.4 5 Sur 18 Sur 0 -- -- 22
2019-05-31 16:00:00 31.7 7 Sur 17 Sudoeste 0 -- -- 22
2019-05-31 15:00:00 31.1 6 Sudeste 15 Sur 0 -- -- 23
2019-05-31 14:00:00 30.4 3 Sur 15 Sudeste 0 -- -- 26
2019-05-31 13:00:00 28.7 4 Sur 14 Sudeste 0 -- -- 27
2019-05-31 12:00:00 27.4 5 Nordeste 11 Sudeste 0 -- -- 28
2019-05-31 11:00:00 26.4 4 Este 11 Sudeste 0 -- -- 29
2019-05-31 10:00:00 25.1 6 Nordeste 13 Norte 0 -- -- 33
2019-05-31 09:00:00 22.2 6 Norte 12 Nordeste 0 -- -- 36
2019-05-31 08:00:00 18.2 8 Norte 12 Norte 0 -- -- 43
2019-05-31 07:00:00 19.1 4 Nordeste 13 Este 0 -- -- 37
2019-05-31 06:00:00 17.6 3 Noroeste 25 Sur 0 -- -- 45
2019-05-31 05:00:00 18.8 7 Norte 13 Nordeste 0 -- -- 41
2019-05-31 04:00:00 21.9 9 Norte 13 Norte 0 -- -- 33
2019-05-31 03:00:00 22.1 7 Norte 16 Noroeste 0 -- -- 32
2019-05-31 02:00:00 21.1 8 Norte 11 Norte 0 -- -- 38
2019-05-31 01:00:00 18.3 7 Norte 9 Norte 0 -- -- 49
2019-05-31 00:00:00 18.6 5 Norte 8 Norte 0 -- -- 52
2019-05-30 23:00:00 19.1 5 Norte 6 Norte 0 -- -- 51
2019-05-30 22:00:00 19.6 5 Norte 6 Norte 0 -- -- 51
2019-05-30 21:00:00 23.5 5 Norte 8 Noroeste 0 -- -- 45
2019-05-30 20:00:00 30.5 4 Noroeste 9 Noroeste 0 -- -- 34
2019-05-30 19:00:00 31 4 Sudoeste 14 Sudeste 0 -- -- 24
2019-05-30 18:00:00 31.2 3 Sur 16 Sudeste 0 -- -- 24
2019-05-30 17:00:00 30.4 9 Sur 19 Sudeste 0 -- -- 25
2019-05-30 16:00:00 29.6 10 Sudeste 20 Sudeste -- -- -- 26
2019-05-30 15:00:00 28.7 9 Sudeste 21 Sudeste 0 -- -- 28
2019-05-30 14:00:00 27.4 6 Este 17 Sudeste 0 -- -- 30
2019-05-30 13:00:00 26 5 Sudeste 16 Sur 0 -- -- 33
2019-05-30 12:00:00 24.3 6 Sudeste 20 Sudeste 0 -- -- 35
2019-05-30 11:00:00 22.6 4 Sudeste 12 Sudeste 0 -- -- 37
2019-05-30 10:00:00 21.2 6 Sudeste 11 Sudeste 0 -- -- 40
2019-05-30 09:00:00 19.1 0 Calma 5 Sudoeste 0 -- -- 47
2019-05-30 08:00:00 13.9 3 Noroeste 7 Noroeste 0 -- -- 61
2019-05-30 07:00:00 13.1 3 Noroeste 8 Norte 0 -- -- 59
2019-05-30 06:00:00 15.5 5 Norte 10 Norte 0 -- -- 48
2019-05-30 05:00:00 18.6 3 Este 13 Nordeste 0 -- -- 42
2019-05-30 04:00:00 19.4 6 Norte 13 Nordeste 0 -- -- 41
2019-05-30 03:00:00 17.1 3 Norte 12 Nordeste 0 -- -- 46
2019-05-30 02:00:00 19.9 3 Norte 21 Nordeste 0 -- -- 37
2019-05-30 01:00:00 20.8 5 Nordeste 19 Nordeste 0 -- -- 32
2019-05-30 00:00:00 21.5 6 Nordeste 27 Nordeste 0 -- -- 34
2019-05-29 23:00:00 21.3 13 Norte 23 Norte 0 -- -- 36
2019-05-29 22:00:00 22.1 6 Nordeste 15 Nordeste 0 -- -- 35
2019-05-29 21:00:00 24.5 5 Norte 23 Norte 0 -- -- 31
2019-05-29 20:00:00 27 11 Norte 28 Norte 0 -- -- 28
2019-05-29 19:00:00 28.6 12 Norte 28 Norte 0 -- -- 26
2019-05-29 18:00:00 29.3 15 Norte 28 Norte 0 -- -- 25
2019-05-29 17:00:00 29 8 Sudeste 23 Sudeste 0 -- -- 25
2019-05-29 16:00:00 28.3 10 Sudeste 28 Sudeste 0 -- -- 27
2019-05-29 15:00:00 27.6 13 Sudeste 29 Sudeste 0 -- -- 28
2019-05-29 14:00:00 26.6 9 Sudoeste 19 Este 0 -- -- 30
2019-05-29 13:00:00 25 6 Sudeste 28 Norte 0 -- -- 33
2019-05-29 12:00:00 22.9 13 Norte 32 Norte -- -- -- 37
2019-05-29 11:00:00 21 11 Norte 27 Norte 0 -- -- 39
2019-05-29 10:00:00 18 8 Nordeste 26 Norte 0 -- -- 44
2019-05-29 09:00:00 15.5 9 Norte 23 Norte 0 -- -- 48
2019-05-29 08:00:00 13.3 10 Norte 22 Norte 0 -- -- 50
2019-05-29 07:00:00 13.7 14 Norte 24 Norte 0 -- -- 47
2019-05-29 06:00:00 14.6 10 Norte 28 Norte 0 -- -- 45
2019-05-29 05:00:00 15.5 12 Norte 30 Norte 0 -- -- 45
2019-05-29 04:00:00 16.3 15 Norte 32 Norte 0 -- -- 45
2019-05-29 03:00:00 16.8 13 Norte 24 Norte 0 -- -- 43
2019-05-29 02:00:00 18.1 18 Norte 32 Noroeste 0 -- -- 38
2019-05-29 01:00:00 18.6 17 Norte 29 Norte 0 -- -- 37
2019-05-29 00:00:00 18.6 6 Norte 14 Noroeste 0 -- -- 37
2019-05-28 23:00:00 19.6 5 Norte 19 Nordeste 0 -- -- 36
2019-05-28 22:00:00 21.2 6 Nordeste 18 Nordeste 0 -- -- 32
2019-05-28 21:00:00 23.1 4 Norte 28 Nordeste 0 -- -- 31
2019-05-28 20:00:00 25.6 10 Nordeste 27 Nordeste 0 -- -- 28
2019-05-28 19:00:00 27 12 Nordeste 32 Norte 0 -- -- 26
2019-05-28 18:00:00 27.6 11 Nordeste 30 Norte 0 -- -- 25
2019-05-28 17:00:00 27.4 14 Nordeste 31 Nordeste 0 -- -- 25
2019-05-28 16:00:00 26.4 16 Norte 37 Norte 0 -- -- 23
2019-05-28 15:00:00 25.7 16 Norte 40 Norte 0 -- -- 26
2019-05-28 14:00:00 24.5 17 Norte 35 Norte 0 -- -- 28
2019-05-28 13:00:00 23.6 15 Norte 36 Norte 0 -- -- 34
2019-05-28 12:00:00 22.4 21 Norte 41 Norte 0 -- -- 36
2019-05-28 11:00:00 20.7 19 Norte 38 Norte 0 -- -- 45
2019-05-28 10:00:00 19.8 13 Norte 33 Norte 0 -- -- 47
2019-05-28 09:00:00 17.9 22 Norte 35 Norte 0 -- -- 49
2019-05-28 08:00:00 15.3 19 Norte 41 Norte 0 -- -- 62
2019-05-28 07:00:00 15.7 21 Norte 36 Norte 0 -- -- 62
2019-05-28 06:00:00 16.5 18 Norte 35 Norte 0 -- -- 59
2019-05-28 05:00:00 18.3 23 Norte 35 Norte 0 -- -- 53
2019-05-28 04:00:00 19.1 18 Norte 45 Norte 0 -- -- 51
2019-05-28 03:00:00 19.7 27 Norte 48 Noroeste 0 -- -- 48
2019-05-28 02:00:00 20.3 22 Norte 42 Norte 0 -- -- 45
2019-05-28 01:00:00 21 22 Norte 39 Noroeste 0 -- -- 41
2019-05-28 00:00:00 20.9 7 Norte 23 Norte -- -- -- 46
2019-05-27 23:00:00 22.1 6 Norte 20 Noroeste 0 -- -- 42
2019-05-27 22:00:00 23.2 11 Noroeste 26 Norte 0 -- -- 41
2019-05-27 21:00:00 24.3 9 Noroeste 15 Norte 0 -- -- 41
2019-05-27 20:00:00 27.2 8 Norte 20 Norte 0 -- -- 37
2019-05-27 19:00:00 27.9 13 Norte 29 Noroeste 0 -- -- 35
2019-05-27 18:00:00 28.8 12 Norte 25 Norte 0 -- -- 31
2019-05-27 17:00:00 29.4 13 Noroeste 26 Norte 0 -- -- 32
2019-05-27 16:00:00 28.9 13 Norte 31 Nordeste 0 -- -- 32
2019-05-27 15:00:00 28.7 12 Norte 26 Nordeste 0 -- -- 34
2019-05-27 14:00:00 27.9 9 Norte 20 Norte 0 -- -- 37
2019-05-27 13:00:00 26.8 7 Nordeste 29 Norte 0 -- -- 38
2019-05-27 12:00:00 25 13 Norte 29 Nordeste 0 -- -- 45
2019-05-27 11:00:00 23.2 13 Nordeste 30 Norte 0 -- -- 49
2019-05-27 10:00:00 22 7 Noroeste 35 Noroeste 0 -- -- 51
2019-05-27 09:00:00 19.2 16 Noroeste 32 Norte 0 -- -- 56
2019-05-27 08:00:00 18 14 Norte 23 Norte 0 -- -- 58
2019-05-27 07:00:00 16.7 9 Noroeste 25 Noroeste 0 -- -- 58
2019-05-27 06:00:00 17.4 3 Noroeste 31 Noroeste 0 -- -- 56
2019-05-27 05:00:00 18.9 6 Noroeste 29 Nordeste 0 -- -- 49
2019-05-27 04:00:00 16.9 6 Norte 9 Norte 0 -- -- 53
2019-05-27 03:00:00 17.5 6 Noroeste 15 Noroeste 0 -- -- 51
2019-05-27 02:00:00 19.1 6 Norte 15 Oeste 0 -- -- 49
2019-05-27 01:00:00 22.2 9 Norte 33 Noroeste 0 -- -- 40
2019-05-27 00:00:00 23 18 Noroeste 35 Noroeste 0 -- -- 41
2019-05-26 23:00:00 20.6 6 Noroeste 12 Norte 0 -- -- 45
2019-05-26 22:00:00 21 6 Noroeste 11 Noroeste 0 -- -- 45
2019-05-26 21:00:00 24.4 0 Calma 23 Norte 0 -- -- 39
2019-05-26 20:00:00 27.3 9 Norte 30 Norte 0 -- -- 31
2019-05-26 19:00:00 28.7 12 Norte 29 Norte 0 -- -- 30
2019-05-26 18:00:00 29.1 13 Norte 28 Norte 0 -- -- 28
2019-05-26 17:00:00 28.6 13 Norte 31 Noroeste 0 -- -- 31
2019-05-26 16:00:00 28.1 13 Norte 28 Noroeste 0 -- -- 32
2019-05-26 15:00:00 26.8 14 Norte 31 Norte 0 -- -- 34
2019-05-26 14:00:00 25.3 22 Norte 40 Noroeste 0 -- -- 35
2019-05-26 13:00:00 24.5 13 Norte 31 Norte 0 -- -- 37
2019-05-26 12:00:00 23 13 Norte 33 Norte 0 -- -- 40
2019-05-26 11:00:00 21.9 11 Nordeste 30 Norte 0 -- -- 42
2019-05-26 10:00:00 19.4 5 Nordeste 21 Norte 0 -- -- 48
2019-05-26 09:00:00 16.7 10 Norte 22 Norte 0 -- -- 49
2019-05-26 08:00:00 14.8 5 Nordeste 21 Noroeste 0 -- -- 52
2019-05-26 07:00:00 14.9 6 Norte 14 Norte 0 -- -- 50
2019-05-26 06:00:00 15.2 10 Nordeste 17 Norte 0 -- -- 49
2019-05-26 05:00:00 16.1 9 Norte 18 Norte 0 -- -- 47
2019-05-26 04:00:00 17 13 Norte 20 Norte 0 -- -- 43
2019-05-26 03:00:00 16.7 8 Norte 14 Norte 0 -- -- 42
2019-05-26 02:00:00 16.5 6 Norte 10 Norte 0 -- -- 42
2019-05-26 01:00:00 17.1 7 Norte 14 Norte 0 -- -- 43
2019-05-26 00:00:00 18.7 9 Norte 18 Noroeste 0 -- -- 39
2019-05-25 23:00:00 18.3 5 Norte 12 Norte 0 -- -- 39
2019-05-25 22:00:00 20.1 2 Nordeste 16 Nordeste 0 -- -- 36
2019-05-25 21:00:00 21.9 5 Norte 24 Nordeste 0 -- -- 33
2019-05-25 20:00:00 24.1 10 Nordeste 31 Norte 0 -- -- 28
2019-05-25 19:00:00 25.2 12 Norte 32 Norte 0 -- -- 28
2019-05-25 18:00:00 25.7 15 Norte 32 Noroeste 0 -- -- 30
2019-05-25 17:00:00 26 13 Norte 34 Norte 0 -- -- 30
2019-05-25 16:00:00 25.3 15 Norte 38 Norte 0 -- -- 30
2019-05-25 15:00:00 24.5 6 Este 35 Norte 0 -- -- 34
2019-05-25 14:00:00 24 10 Norte 40 Noroeste 0 -- -- 35
2019-05-25 13:00:00 22.1 6 Este 23 Este 0 -- -- 38
2019-05-25 12:00:00 20.5 9 Sudeste 21 Sudeste 0 -- -- 43
2019-05-25 11:00:00 19.1 10 Sudeste 24 Norte 0 -- -- 47
2019-05-25 10:00:00 16.9 12 Norte 26 Nordeste 0 -- -- 53
2019-05-25 09:00:00 14.1 13 Norte 32 Norte 0 -- -- 61
2019-05-25 08:00:00 12.2 13 Norte 62 Noroeste 0 -- -- 67
2019-05-25 07:00:00 12.2 17 Norte 34 Norte 0 -- -- 64
2019-05-25 06:00:00 12.1 8 Norte 35 Norte 0 -- -- 65
2019-05-25 05:00:00 12.7 14 Norte 34 Norte 0 -- -- 61
2019-05-25 04:00:00 13.7 14 Norte 36 Norte 0 -- -- 56
2019-05-25 03:00:00 14.6 13 Norte 28 Norte 0 -- -- 51
2019-05-25 02:00:00 15.9 14 Norte 28 Norte 0 -- -- 48
2019-05-25 01:00:00 16.6 8 Norte 27 Norte 0 -- -- 40
2019-05-25 00:00:00 18.4 10 Nordeste 25 Nordeste 0 -- -- 33